sensor_id;sensor_type;location;lat;lon;timestamp;P1;durP1;ratioP1;P2;durP2;ratioP2
16770;SDS011;8503;52.472;13.344;2022-07-23T00:01:14;4.25;;;3.85;;
16770;SDS011;8503;52.472;13.344;2022-07-23T00:02:48;8.57;;;4.10;;
16770;SDS011;8503;52.472;13.344;2022-07-23T00:04:11;8.32;;;4.10;;
16770;SDS011;8503;52.472;13.344;2022-07-23T00:05:34;5.22;;;4.30;;
16770;SDS011;8503;52.472;13.344;2022-07-23T00:06:58;6.78;;;4.38;;
16770;SDS011;8503;52.472;13.344;2022-07-23T00:08:24;9.27;;;4.65;;
16770;SDS011;8503;52.472;13.344;2022-07-23T00:09:47;6.13;;;4.40;;
16770;SDS011;8503;52.472;13.344;2022-07-23T00:11:11;5.50;;;3.95;;
16770;SDS011;8503;52.472;13.344;2022-07-23T00:12:33;4.43;;;4.03;;
16770;SDS011;8503;52.472;13.344;2022-07-23T00:14:10;4.57;;;3.88;;
16770;SDS011;8503;52.472;13.344;2022-07-23T00:15:33;11.63;;;4.35;;
16770;SDS011;8503;52.472;13.344;2022-07-23T00:16:57;4.90;;;4.07;;
16770;SDS011;8503;52.472;13.344;2022-07-23T00:18:19;4.82;;;3.70;;
16770;SDS011;8503;52.472;13.344;2022-07-23T00:19:43;8.32;;;4.38;;
16770;SDS011;8503;52.472;13.344;2022-07-23T00:21:07;7.57;;;3.92;;
16770;SDS011;8503;52.472;13.344;2022-07-23T00:22:30;5.30;;;3.85;;
16770;SDS011;8503;52.472;13.344;2022-07-23T00:23:55;6.55;;;4.40;;
16770;SDS011;8503;52.472;13.344;2022-07-23T00:25:19;7.05;;;4.20;;
16770;SDS011;8503;52.472;13.344;2022-07-23T00:26:49;5.03;;;3.45;;
16770;SDS011;8503;52.472;13.344;2022-07-23T00:28:13;8.07;;;4.10;;
16770;SDS011;8503;52.472;13.344;2022-07-23T00:29:35;6.75;;;4.32;;
16770;SDS011;8503;52.472;13.344;2022-07-23T00:30:59;10.45;;;4.18;;
16770;SDS011;8503;52.472;13.344;2022-07-23T00:32:22;6.10;;;4.10;;
16770;SDS011;8503;52.472;13.344;2022-07-23T00:34:07;6.97;;;3.90;;
16770;SDS011;8503;52.472;13.344;2022-07-23T00:35:31;6.63;;;4.13;;
16770;SDS011;8503;52.472;13.344;2022-07-23T00:36:54;7.35;;;3.90;;
16770;SDS011;8503;52.472;13.344;2022-07-23T00:38:18;11.73;;;4.15;;
16770;SDS011;8503;52.472;13.344;2022-07-23T00:39:42;5.90;;;4.07;;
16770;SDS011;8503;52.472;13.344;2022-07-23T00:41:05;4.50;;;3.80;;
16770;SDS011;8503;52.472;13.344;2022-07-23T00:42:28;8.02;;;4.00;;
16770;SDS011;8503;52.472;13.344;2022-07-23T00:43:53;5.22;;;3.85;;
16770;SDS011;8503;52.472;13.344;2022-07-23T00:45:16;7.13;;;4.03;;
16770;SDS011;8503;52.472;13.344;2022-07-23T00:46:43;6.28;;;4.18;;
16770;SDS011;8503;52.472;13.344;2022-07-23T00:48:07;9.68;;;3.90;;
16770;SDS011;8503;52.472;13.344;2022-07-23T00:49:30;5.32;;;3.85;;
16770;SDS011;8503;52.472;13.344;2022-07-23T00:50:54;7.38;;;3.67;;
16770;SDS011;8503;52.472;13.344;2022-07-23T00:52:17;6.55;;;4.40;;
16770;SDS011;8503;52.472;13.344;2022-07-23T00:53:41;7.55;;;4.35;;
16770;SDS011;8503;52.472;13.344;2022-07-23T00:55:07;10.50;;;4.05;;
16770;SDS011;8503;52.472;13.344;2022-07-23T00:56:31;5.85;;;4.18;;
16770;SDS011;8503;52.472;13.344;2022-07-23T00:57:54;5.10;;;4.15;;
16770;SDS011;8503;52.472;13.344;2022-07-23T00:59:18;4.95;;;3.90;;
16770;SDS011;8503;52.472;13.344;2022-07-23T01:00:42;4.00;;;3.60;;
16770;SDS011;8503;52.472;13.344;2022-07-23T01:02:05;6.90;;;3.78;;
16770;SDS011;8503;52.472;13.344;2022-07-23T01:03:29;5.78;;;3.85;;
16770;SDS011;8503;52.472;13.344;2022-07-23T01:04:51;5.15;;;4.13;;
16770;SDS011;8503;52.472;13.344;2022-07-23T01:06:15;4.47;;;3.80;;
16770;SDS011;8503;52.472;13.344;2022-07-23T01:07:38;7.20;;;3.85;;
16770;SDS011;8503;52.472;13.344;2022-07-23T01:09:02;6.55;;;4.15;;
16770;SDS011;8503;52.472;13.344;2022-07-23T01:10:28;5.70;;;3.97;;
16770;SDS011;8503;52.472;13.344;2022-07-23T01:11:53;7.10;;;3.92;;
16770;SDS011;8503;52.472;13.344;2022-07-23T01:13:17;6.85;;;4.22;;
16770;SDS011;8503;52.472;13.344;2022-07-23T01:14:40;6.07;;;4.30;;
16770;SDS011;8503;52.472;13.344;2022-07-23T01:16:04;8.73;;;3.97;;
16770;SDS011;8503;52.472;13.344;2022-07-23T01:17:31;8.93;;;4.60;;
16770;SDS011;8503;52.472;13.344;2022-07-23T01:18:53;6.35;;;4.18;;
16770;SDS011;8503;52.472;13.344;2022-07-23T01:20:17;3.85;;;3.33;;
16770;SDS011;8503;52.472;13.344;2022-07-23T01:21:40;5.90;;;4.13;;
16770;SDS011;8503;52.472;13.344;2022-07-23T01:23:05;5.97;;;3.55;;
16770;SDS011;8503;52.472;13.344;2022-07-23T01:24:29;8.38;;;4.13;;
16770;SDS011;8503;52.472;13.344;2022-07-23T01:25:52;4.32;;;3.92;;
16770;SDS011;8503;52.472;13.344;2022-07-23T01:27:16;6.60;;;3.78;;
16770;SDS011;8503;52.472;13.344;2022-07-23T01:28:40;4.47;;;3.70;;
16770;SDS011;8503;52.472;13.344;2022-07-23T01:30:04;4.93;;;3.78;;
16770;SDS011;8503;52.472;13.344;2022-07-23T01:31:30;8.80;;;4.43;;
16770;SDS011;8503;52.472;13.344;2022-07-23T01:32:54;7.90;;;4.43;;
16770;SDS011;8503;52.472;13.344;2022-07-23T01:34:16;7.22;;;4.30;;
16770;SDS011;8503;52.472;13.344;2022-07-23T01:35:40;5.28;;;4.05;;
16770;SDS011;8503;52.472;13.344;2022-07-23T01:37:02;5.55;;;3.78;;
16770;SDS011;8503;52.472;13.344;2022-07-23T01:38:27;5.35;;;4.18;;
16770;SDS011;8503;52.472;13.344;2022-07-23T01:39:51;8.05;;;4.28;;
16770;SDS011;8503;52.472;13.344;2022-07-23T01:41:13;4.90;;;4.10;;
16770;SDS011;8503;52.472;13.344;2022-07-23T01:42:37;5.97;;;4.30;;
16770;SDS011;8503;52.472;13.344;2022-07-23T01:44:02;6.68;;;4.15;;
16770;SDS011;8503;52.472;13.344;2022-07-23T01:45:26;7.75;;;4.30;;
16770;SDS011;8503;52.472;13.344;2022-07-23T01:46:48;6.80;;;4.38;;
16770;SDS011;8503;52.472;13.344;2022-07-23T01:48:12;6.15;;;3.83;;
16770;SDS011;8503;52.472;13.344;2022-07-23T01:49:34;5.35;;;3.85;;
16770;SDS011;8503;52.472;13.344;2022-07-23T01:50:59;7.15;;;4.47;;
16770;SDS011;8503;52.472;13.344;2022-07-23T01:52:22;8.32;;;4.15;;
16770;SDS011;8503;52.472;13.344;2022-07-23T01:53:46;10.05;;;4.47;;
16770;SDS011;8503;52.472;13.344;2022-07-23T01:55:10;8.60;;;4.28;;
16770;SDS011;8503;52.472;13.344;2022-07-23T01:56:39;5.03;;;4.13;;
16770;SDS011;8503;52.472;13.344;2022-07-23T01:58:02;7.47;;;3.90;;
16770;SDS011;8503;52.472;13.344;2022-07-23T01:59:26;10.57;;;4.10;;
16770;SDS011;8503;52.472;13.344;2022-07-23T02:00:50;6.68;;;4.13;;
16770;SDS011;8503;52.472;13.344;2022-07-23T02:02:13;7.15;;;4.32;;
16770;SDS011;8503;52.472;13.344;2022-07-23T02:03:37;6.05;;;3.83;;
16770;SDS011;8503;52.472;13.344;2022-07-23T02:05:01;8.50;;;4.00;;
16770;SDS011;8503;52.472;13.344;2022-07-23T02:06:23;11.35;;;4.10;;
16770;SDS011;8503;52.472;13.344;2022-07-23T02:07:47;7.95;;;4.28;;
16770;SDS011;8503;52.472;13.344;2022-07-23T02:09:11;4.65;;;3.80;;
16770;SDS011;8503;52.472;13.344;2022-07-23T02:10:34;6.88;;;4.45;;
16770;SDS011;8503;52.472;13.344;2022-07-23T02:11:58;7.45;;;3.95;;
16770;SDS011;8503;52.472;13.344;2022-07-23T02:13:22;10.43;;;4.38;;
16770;SDS011;8503;52.472;13.344;2022-07-23T02:14:44;4.85;;;3.97;;
16770;SDS011;8503;52.472;13.344;2022-07-23T02:16:08;7.50;;;3.55;;
16770;SDS011;8503;52.472;13.344;2022-07-23T02:17:32;8.32;;;4.40;;
16770;SDS011;8503;52.472;13.344;2022-07-23T02:18:54;6.95;;;4.10;;
16770;SDS011;8503;52.472;13.344;2022-07-23T02:20:19;8.82;;;3.70;;
16770;SDS011;8503;52.472;13.344;2022-07-23T02:21:43;6.10;;;3.95;;
16770;SDS011;8503;52.472;13.344;2022-07-23T02:23:05;4.38;;;3.60;;
16770;SDS011;8503;52.472;13.344;2022-07-23T02:24:30;7.28;;;3.60;;
16770;SDS011;8503;52.472;13.344;2022-07-23T02:25:54;6.47;;;3.97;;
16770;SDS011;8503;52.472;13.344;2022-07-23T02:27:16;7.03;;;3.83;;
16770;SDS011;8503;52.472;13.344;2022-07-23T02:28:40;5.53;;;4.50;;
16770;SDS011;8503;52.472;13.344;2022-07-23T02:30:04;5.05;;;3.58;;
16770;SDS011;8503;52.472;13.344;2022-07-23T02:31:28;8.70;;;3.92;;
16770;SDS011;8503;52.472;13.344;2022-07-23T02:32:51;8.73;;;3.92;;
16770;SDS011;8503;52.472;13.344;2022-07-23T02:34:15;7.55;;;3.85;;
16770;SDS011;8503;52.472;13.344;2022-07-23T02:35:38;7.45;;;4.13;;
16770;SDS011;8503;52.472;13.344;2022-07-23T02:37:01;10.73;;;3.92;;
16770;SDS011;8503;52.472;13.344;2022-07-23T02:38:25;7.32;;;3.78;;
16770;SDS011;8503;52.472;13.344;2022-07-23T02:39:49;8.07;;;3.50;;
16770;SDS011;8503;52.472;13.344;2022-07-23T02:41:12;8.60;;;3.67;;
16770;SDS011;8503;52.472;13.344;2022-07-23T02:42:36;5.70;;;4.20;;
16770;SDS011;8503;52.472;13.344;2022-07-23T02:43:58;7.05;;;4.20;;
16770;SDS011;8503;52.472;13.344;2022-07-23T02:45:22;4.72;;;3.67;;
16770;SDS011;8503;52.472;13.344;2022-07-23T02:46:46;5.38;;;4.35;;
16770;SDS011;8503;52.472;13.344;2022-07-23T02:48:09;7.07;;;4.15;;
16770;SDS011;8503;52.472;13.344;2022-07-23T02:49:34;7.75;;;4.13;;
16770;SDS011;8503;52.472;13.344;2022-07-23T02:50:57;10.13;;;3.83;;
16770;SDS011;8503;52.472;13.344;2022-07-23T02:52:21;11.23;;;4.43;;
16770;SDS011;8503;52.472;13.344;2022-07-23T02:53:44;8.55;;;4.15;;
16770;SDS011;8503;52.472;13.344;2022-07-23T02:55:09;6.88;;;4.13;;
16770;SDS011;8503;52.472;13.344;2022-07-23T02:56:33;6.05;;;4.28;;
16770;SDS011;8503;52.472;13.344;2022-07-23T02:57:55;8.48;;;5.00;;
16770;SDS011;8503;52.472;13.344;2022-07-23T02:59:19;10.25;;;4.50;;
16770;SDS011;8503;52.472;13.344;2022-07-23T03:00:42;10.23;;;4.38;;
16770;SDS011;8503;52.472;13.344;2022-07-23T03:02:05;7.72;;;3.90;;
16770;SDS011;8503;52.472;13.344;2022-07-23T03:03:28;6.15;;;3.85;;
16770;SDS011;8503;52.472;13.344;2022-07-23T03:04:52;9.73;;;4.65;;
16770;SDS011;8503;52.472;13.344;2022-07-23T03:06:15;11.98;;;4.28;;
16770;SDS011;8503;52.472;13.344;2022-07-23T03:07:38;11.45;;;4.65;;
16770;SDS011;8503;52.472;13.344;2022-07-23T03:09:01;7.53;;;4.47;;
16770;SDS011;8503;52.472;13.344;2022-07-23T03:10:26;11.43;;;5.10;;
16770;SDS011;8503;52.472;13.344;2022-07-23T03:11:49;8.07;;;4.32;;
16770;SDS011;8503;52.472;13.344;2022-07-23T03:13:14;10.85;;;4.45;;
16770;SDS011;8503;52.472;13.344;2022-07-23T03:14:37;7.63;;;3.80;;
16770;SDS011;8503;52.472;13.344;2022-07-23T03:16:00;8.57;;;4.40;;
16770;SDS011;8503;52.472;13.344;2022-07-23T03:17:24;9.55;;;4.40;;
16770;SDS011;8503;52.472;13.344;2022-07-23T03:18:48;6.65;;;4.22;;
16770;SDS011;8503;52.472;13.344;2022-07-23T03:20:11;9.48;;;4.10;;
16770;SDS011;8503;52.472;13.344;2022-07-23T03:21:34;8.43;;;4.40;;
16770;SDS011;8503;52.472;13.344;2022-07-23T03:23:01;7.57;;;4.40;;
16770;SDS011;8503;52.472;13.344;2022-07-23T03:24:27;8.88;;;4.53;;
16770;SDS011;8503;52.472;13.344;2022-07-23T03:26:06;7.72;;;4.32;;
16770;SDS011;8503;52.472;13.344;2022-07-23T03:27:30;6.65;;;4.30;;
16770;SDS011;8503;52.472;13.344;2022-07-23T03:28:53;10.20;;;4.45;;
16770;SDS011;8503;52.472;13.344;2022-07-23T03:30:17;6.13;;;4.38;;
16770;SDS011;8503;52.472;13.344;2022-07-23T03:31:41;7.90;;;4.05;;
16770;SDS011;8503;52.472;13.344;2022-07-23T03:33:05;8.90;;;4.30;;
16770;SDS011;8503;52.472;13.344;2022-07-23T03:34:28;6.85;;;4.22;;
16770;SDS011;8503;52.472;13.344;2022-07-23T03:35:51;10.15;;;3.83;;
16770;SDS011;8503;52.472;13.344;2022-07-23T03:37:15;5.25;;;3.60;;
16770;SDS011;8503;52.472;13.344;2022-07-23T03:38:39;8.25;;;3.60;;
16770;SDS011;8503;52.472;13.344;2022-07-23T03:40:03;6.50;;;3.50;;
16770;SDS011;8503;52.472;13.344;2022-07-23T03:41:28;8.27;;;3.95;;
16770;SDS011;8503;52.472;13.344;2022-07-23T03:42:51;6.70;;;3.58;;
16770;SDS011;8503;52.472;13.344;2022-07-23T03:44:15;7.75;;;3.40;;
16770;SDS011;8503;52.472;13.344;2022-07-23T03:45:37;5.57;;;3.25;;
16770;SDS011;8503;52.472;13.344;2022-07-23T03:47:01;6.50;;;3.28;;
16770;SDS011;8503;52.472;13.344;2022-07-23T03:48:25;8.88;;;3.67;;
16770;SDS011;8503;52.472;13.344;2022-07-23T03:49:49;4.65;;;3.17;;
16770;SDS011;8503;52.472;13.344;2022-07-23T03:51:12;7.47;;;2.85;;
16770;SDS011;8503;52.472;13.344;2022-07-23T03:52:36;4.53;;;2.63;;
16770;SDS011;8503;52.472;13.344;2022-07-23T03:53:59;4.30;;;2.88;;
16770;SDS011;8503;52.472;13.344;2022-07-23T03:55:22;5.25;;;2.70;;
16770;SDS011;8503;52.472;13.344;2022-07-23T03:56:47;4.07;;;2.58;;
16770;SDS011;8503;52.472;13.344;2022-07-23T03:58:11;7.43;;;2.70;;
16770;SDS011;8503;52.472;13.344;2022-07-23T03:59:34;8.35;;;2.53;;
16770;SDS011;8503;52.472;13.344;2022-07-23T04:00:58;5.47;;;2.38;;
16770;SDS011;8503;52.472;13.344;2022-07-23T04:02:21;5.97;;;2.20;;
16770;SDS011;8503;52.472;13.344;2022-07-23T04:03:45;4.97;;;2.17;;
16770;SDS011;8503;52.472;13.344;2022-07-23T04:05:08;1.67;;;1.52;;
16770;SDS011;8503;52.472;13.344;2022-07-23T04:06:31;4.07;;;1.88;;
16770;SDS011;8503;52.472;13.344;2022-07-23T04:07:54;4.45;;;1.80;;
16770;SDS011;8503;52.472;13.344;2022-07-23T04:09:18;4.72;;;2.03;;
16770;SDS011;8503;52.472;13.344;2022-07-23T04:10:41;3.80;;;2.20;;
16770;SDS011;8503;52.472;13.344;2022-07-23T04:12:06;3.70;;;1.80;;
16770;SDS011;8503;52.472;13.344;2022-07-23T04:13:30;6.10;;;2.08;;
16770;SDS011;8503;52.472;13.344;2022-07-23T04:14:54;4.32;;;1.88;;
16770;SDS011;8503;52.472;13.344;2022-07-23T04:16:17;4.63;;;2.00;;
16770;SDS011;8503;52.472;13.344;2022-07-23T04:17:41;5.70;;;1.77;;
16770;SDS011;8503;52.472;13.344;2022-07-23T04:19:05;6.82;;;1.70;;
16770;SDS011;8503;52.472;13.344;2022-07-23T04:20:28;2.83;;;1.40;;
16770;SDS011;8503;52.472;13.344;2022-07-23T04:21:51;5.78;;;2.00;;
16770;SDS011;8503;52.472;13.344;2022-07-23T04:23:14;3.10;;;1.85;;
16770;SDS011;8503;52.472;13.344;2022-07-23T04:24:40;5.00;;;1.73;;
16770;SDS011;8503;52.472;13.344;2022-07-23T04:26:03;6.07;;;1.75;;
16770;SDS011;8503;52.472;13.344;2022-07-23T04:27:28;3.75;;;1.75;;
16770;SDS011;8503;52.472;13.344;2022-07-23T04:28:54;5.57;;;2.10;;
16770;SDS011;8503;52.472;13.344;2022-07-23T04:30:17;3.10;;;1.67;;
16770;SDS011;8503;52.472;13.344;2022-07-23T04:31:40;4.03;;;1.67;;
16770;SDS011;8503;52.472;13.344;2022-07-23T04:33:03;8.18;;;2.25;;
16770;SDS011;8503;52.472;13.344;2022-07-23T04:34:28;5.53;;;2.10;;
16770;SDS011;8503;52.472;13.344;2022-07-23T04:35:50;5.78;;;1.65;;
16770;SDS011;8503;52.472;13.344;2022-07-23T04:37:14;3.88;;;1.77;;
16770;SDS011;8503;52.472;13.344;2022-07-23T04:38:37;4.82;;;1.80;;
16770;SDS011;8503;52.472;13.344;2022-07-23T04:40:00;6.50;;;1.83;;
16770;SDS011;8503;52.472;13.344;2022-07-23T04:41:24;2.60;;;1.67;;
16770;SDS011;8503;52.472;13.344;2022-07-23T04:42:47;6.97;;;1.80;;
16770;SDS011;8503;52.472;13.344;2022-07-23T04:44:11;3.47;;;1.83;;
16770;SDS011;8503;52.472;13.344;2022-07-23T04:45:34;3.70;;;1.73;;
16770;SDS011;8503;52.472;13.344;2022-07-23T04:46:58;3.55;;;1.80;;
16770;SDS011;8503;52.472;13.344;2022-07-23T04:48:22;5.25;;;2.08;;
16770;SDS011;8503;52.472;13.344;2022-07-23T04:49:45;3.88;;;1.60;;
16770;SDS011;8503;52.472;13.344;2022-07-23T04:51:08;5.50;;;2.08;;
16770;SDS011;8503;52.472;13.344;2022-07-23T04:52:31;2.75;;;1.80;;
16770;SDS011;8503;52.472;13.344;2022-07-23T04:53:54;4.35;;;1.75;;
16770;SDS011;8503;52.472;13.344;2022-07-23T04:55:18;5.32;;;2.10;;
16770;SDS011;8503;52.472;13.344;2022-07-23T04:56:40;3.85;;;1.70;;
16770;SDS011;8503;52.472;13.344;2022-07-23T04:58:05;5.25;;;2.30;;
16770;SDS011;8503;52.472;13.344;2022-07-23T04:59:28;3.22;;;1.60;;
16770;SDS011;8503;52.472;13.344;2022-07-23T05:00:51;5.55;;;1.90;;
16770;SDS011;8503;52.472;13.344;2022-07-23T05:02:15;3.33;;;1.80;;
16770;SDS011;8503;52.472;13.344;2022-07-23T05:03:39;5.00;;;1.77;;
16770;SDS011;8503;52.472;13.344;2022-07-23T05:05:02;5.80;;;1.90;;
16770;SDS011;8503;52.472;13.344;2022-07-23T05:06:26;2.70;;;1.80;;
16770;SDS011;8503;52.472;13.344;2022-07-23T05:07:50;4.50;;;1.88;;
16770;SDS011;8503;52.472;13.344;2022-07-23T05:09:12;7.88;;;1.75;;
16770;SDS011;8503;52.472;13.344;2022-07-23T05:10:37;2.55;;;1.70;;
16770;SDS011;8503;52.472;13.344;2022-07-23T05:11:59;5.18;;;2.00;;
16770;SDS011;8503;52.472;13.344;2022-07-23T05:13:24;3.58;;;1.95;;
16770;SDS011;8503;52.472;13.344;2022-07-23T05:14:47;6.53;;;1.77;;
16770;SDS011;8503;52.472;13.344;2022-07-23T05:16:11;7.55;;;2.28;;
16770;SDS011;8503;52.472;13.344;2022-07-23T05:17:35;5.65;;;1.77;;
16770;SDS011;8503;52.472;13.344;2022-07-23T05:18:59;4.32;;;1.70;;
16770;SDS011;8503;52.472;13.344;2022-07-23T05:20:23;4.05;;;1.92;;
16770;SDS011;8503;52.472;13.344;2022-07-23T05:21:45;6.18;;;1.75;;
16770;SDS011;8503;52.472;13.344;2022-07-23T05:23:09;6.63;;;2.30;;
16770;SDS011;8503;52.472;13.344;2022-07-23T05:24:31;7.60;;;2.13;;
16770;SDS011;8503;52.472;13.344;2022-07-23T05:25:55;5.55;;;2.15;;
16770;SDS011;8503;52.472;13.344;2022-07-23T05:27:18;6.78;;;2.05;;
16770;SDS011;8503;52.472;13.344;2022-07-23T05:28:43;7.20;;;1.85;;
16770;SDS011;8503;52.472;13.344;2022-07-23T05:30:10;7.00;;;2.03;;
16770;SDS011;8503;52.472;13.344;2022-07-23T05:31:34;5.28;;;1.98;;
16770;SDS011;8503;52.472;13.344;2022-07-23T05:32:58;9.00;;;1.80;;
16770;SDS011;8503;52.472;13.344;2022-07-23T05:34:21;8.00;;;1.92;;
16770;SDS011;8503;52.472;13.344;2022-07-23T05:35:44;5.03;;;1.60;;
16770;SDS011;8503;52.472;13.344;2022-07-23T05:37:08;3.00;;;1.67;;
16770;SDS011;8503;52.472;13.344;2022-07-23T05:38:31;3.40;;;1.88;;
16770;SDS011;8503;52.472;13.344;2022-07-23T05:39:55;7.97;;;1.90;;
16770;SDS011;8503;52.472;13.344;2022-07-23T05:41:23;3.63;;;2.00;;
16770;SDS011;8503;52.472;13.344;2022-07-23T05:42:46;4.50;;;1.92;;
16770;SDS011;8503;52.472;13.344;2022-07-23T05:44:11;4.80;;;2.00;;
16770;SDS011;8503;52.472;13.344;2022-07-23T05:45:35;4.40;;;1.95;;
16770;SDS011;8503;52.472;13.344;2022-07-23T05:46:58;2.83;;;1.75;;
16770;SDS011;8503;52.472;13.344;2022-07-23T05:48:22;6.07;;;2.50;;
16770;SDS011;8503;52.472;13.344;2022-07-23T05:49:46;4.53;;;1.70;;
16770;SDS011;8503;52.472;13.344;2022-07-23T05:51:08;5.07;;;2.05;;
16770;SDS011;8503;52.472;13.344;2022-07-23T05:52:31;4.72;;;2.13;;
16770;SDS011;8503;52.472;13.344;2022-07-23T05:53:54;5.28;;;1.92;;
16770;SDS011;8503;52.472;13.344;2022-07-23T05:55:17;7.78;;;2.30;;
16770;SDS011;8503;52.472;13.344;2022-07-23T05:56:41;5.95;;;2.10;;
16770;SDS011;8503;52.472;13.344;2022-07-23T05:58:03;6.10;;;2.13;;
16770;SDS011;8503;52.472;13.344;2022-07-23T05:59:28;6.75;;;2.20;;
16770;SDS011;8503;52.472;13.344;2022-07-23T06:00:52;6.93;;;2.20;;
16770;SDS011;8503;52.472;13.344;2022-07-23T06:02:15;3.60;;;2.08;;
16770;SDS011;8503;52.472;13.344;2022-07-23T06:03:39;6.45;;;2.80;;
16770;SDS011;8503;52.472;13.344;2022-07-23T06:05:03;4.47;;;1.95;;
16770;SDS011;8503;52.472;13.344;2022-07-23T06:06:26;4.68;;;1.75;;
16770;SDS011;8503;52.472;13.344;2022-07-23T06:07:49;8.30;;;2.38;;
16770;SDS011;8503;52.472;13.344;2022-07-23T06:09:14;7.22;;;2.30;;
16770;SDS011;8503;52.472;13.344;2022-07-23T06:10:37;7.63;;;2.97;;
16770;SDS011;8503;52.472;13.344;2022-07-23T06:12:01;14.35;;;3.08;;
16770;SDS011;8503;52.472;13.344;2022-07-23T06:13:25;15.48;;;4.50;;
16770;SDS011;8503;52.472;13.344;2022-07-23T06:14:50;7.60;;;2.80;;
16770;SDS011;8503;52.472;13.344;2022-07-23T06:16:13;3.42;;;1.98;;
16770;SDS011;8503;52.472;13.344;2022-07-23T06:17:37;8.50;;;2.25;;
16770;SDS011;8503;52.472;13.344;2022-07-23T06:19:01;8.77;;;2.40;;
16770;SDS011;8503;52.472;13.344;2022-07-23T06:20:25;6.13;;;2.20;;
16770;SDS011;8503;52.472;13.344;2022-07-23T06:21:49;5.70;;;2.33;;
16770;SDS011;8503;52.472;13.344;2022-07-23T06:23:12;6.25;;;2.28;;
16770;SDS011;8503;52.472;13.344;2022-07-23T06:24:36;7.65;;;2.30;;
16770;SDS011;8503;52.472;13.344;2022-07-23T06:25:59;8.18;;;2.00;;
16770;SDS011;8503;52.472;13.344;2022-07-23T06:27:22;4.68;;;1.98;;
16770;SDS011;8503;52.472;13.344;2022-07-23T06:28:47;9.30;;;2.13;;
16770;SDS011;8503;52.472;13.344;2022-07-23T06:30:11;4.93;;;2.10;;
16770;SDS011;8503;52.472;13.344;2022-07-23T06:31:38;4.55;;;2.20;;
16770;SDS011;8503;52.472;13.344;2022-07-23T06:33:02;12.57;;;2.45;;
16770;SDS011;8503;52.472;13.344;2022-07-23T06:34:25;4.75;;;2.20;;
16770;SDS011;8503;52.472;13.344;2022-07-23T06:35:50;8.85;;;2.40;;
16770;SDS011;8503;52.472;13.344;2022-07-23T06:37:13;7.03;;;2.55;;
16770;SDS011;8503;52.472;13.344;2022-07-23T06:38:38;4.50;;;2.10;;
16770;SDS011;8503;52.472;13.344;2022-07-23T06:40:02;11.40;;;2.65;;
16770;SDS011;8503;52.472;13.344;2022-07-23T06:41:26;7.72;;;2.60;;
16770;SDS011;8503;52.472;13.344;2022-07-23T06:42:50;7.60;;;2.72;;
16770;SDS011;8503;52.472;13.344;2022-07-23T06:44:13;10.25;;;2.95;;
16770;SDS011;8503;52.472;13.344;2022-07-23T06:45:37;10.98;;;3.63;;
16770;SDS011;8503;52.472;13.344;2022-07-23T06:47:01;10.80;;;2.78;;
16770;SDS011;8503;52.472;13.344;2022-07-23T06:48:25;9.60;;;2.55;;
16770;SDS011;8503;52.472;13.344;2022-07-23T06:49:49;5.10;;;2.80;;
16770;SDS011;8503;52.472;13.344;2022-07-23T06:51:13;9.65;;;2.70;;
16770;SDS011;8503;52.472;13.344;2022-07-23T06:52:35;7.95;;;2.88;;
16770;SDS011;8503;52.472;13.344;2022-07-23T06:54:04;3.60;;;2.40;;
16770;SDS011;8503;52.472;13.344;2022-07-23T06:55:27;6.18;;;2.83;;
16770;SDS011;8503;52.472;13.344;2022-07-23T06:56:52;10.98;;;2.92;;
16770;SDS011;8503;52.472;13.344;2022-07-23T06:58:15;8.23;;;2.30;;
16770;SDS011;8503;52.472;13.344;2022-07-23T06:59:40;6.43;;;2.50;;
16770;SDS011;8503;52.472;13.344;2022-07-23T07:01:04;6.55;;;2.70;;
16770;SDS011;8503;52.472;13.344;2022-07-23T07:02:28;6.35;;;2.50;;
16770;SDS011;8503;52.472;13.344;2022-07-23T07:03:52;8.95;;;2.67;;
16770;SDS011;8503;52.472;13.344;2022-07-23T07:05:16;4.32;;;2.30;;
16770;SDS011;8503;52.472;13.344;2022-07-23T07:06:38;10.70;;;2.70;;
16770;SDS011;8503;52.472;13.344;2022-07-23T07:08:02;9.60;;;2.72;;
16770;SDS011;8503;52.472;13.344;2022-07-23T07:09:26;8.00;;;2.30;;
16770;SDS011;8503;52.472;13.344;2022-07-23T07:10:49;5.20;;;2.53;;
16770;SDS011;8503;52.472;13.344;2022-07-23T07:12:13;8.65;;;2.28;;
16770;SDS011;8503;52.472;13.344;2022-07-23T07:13:35;7.30;;;2.50;;
16770;SDS011;8503;52.472;13.344;2022-07-23T07:15:00;4.60;;;2.30;;
16770;SDS011;8503;52.472;13.344;2022-07-23T07:16:25;3.67;;;2.28;;
16770;SDS011;8503;52.472;13.344;2022-07-23T07:17:53;7.05;;;2.20;;
16770;SDS011;8503;52.472;13.344;2022-07-23T07:19:17;3.63;;;2.30;;
16770;SDS011;8503;52.472;13.344;2022-07-23T07:20:39;6.57;;;2.60;;
16770;SDS011;8503;52.472;13.344;2022-07-23T07:22:03;5.75;;;2.47;;
16770;SDS011;8503;52.472;13.344;2022-07-23T07:23:26;7.18;;;2.00;;
16770;SDS011;8503;52.472;13.344;2022-07-23T07:24:50;4.60;;;2.15;;
16770;SDS011;8503;52.472;13.344;2022-07-23T07:26:13;6.55;;;2.15;;
16770;SDS011;8503;52.472;13.344;2022-07-23T07:27:37;5.07;;;2.40;;
16770;SDS011;8503;52.472;13.344;2022-07-23T07:29:00;5.25;;;1.92;;
16770;SDS011;8503;52.472;13.344;2022-07-23T07:30:25;5.40;;;2.47;;
16770;SDS011;8503;52.472;13.344;2022-07-23T07:31:55;4.43;;;2.33;;
16770;SDS011;8503;52.472;13.344;2022-07-23T07:33:19;4.38;;;2.47;;
16770;SDS011;8503;52.472;13.344;2022-07-23T07:34:43;4.45;;;2.38;;
16770;SDS011;8503;52.472;13.344;2022-07-23T07:36:07;3.10;;;2.00;;
16770;SDS011;8503;52.472;13.344;2022-07-23T07:37:33;5.78;;;2.42;;
16770;SDS011;8503;52.472;13.344;2022-07-23T07:38:57;3.65;;;2.42;;
16770;SDS011;8503;52.472;13.344;2022-07-23T07:40:21;6.00;;;2.63;;
16770;SDS011;8503;52.472;13.344;2022-07-23T07:41:50;3.78;;;2.30;;
16770;SDS011;8503;52.472;13.344;2022-07-23T07:43:14;5.40;;;2.40;;
16770;SDS011;8503;52.472;13.344;2022-07-23T07:44:37;6.97;;;2.78;;
16770;SDS011;8503;52.472;13.344;2022-07-23T07:46:00;7.05;;;2.65;;
16770;SDS011;8503;52.472;13.344;2022-07-23T07:47:25;5.03;;;2.45;;
16770;SDS011;8503;52.472;13.344;2022-07-23T07:48:47;7.65;;;2.67;;
16770;SDS011;8503;52.472;13.344;2022-07-23T07:50:18;9.57;;;2.60;;
16770;SDS011;8503;52.472;13.344;2022-07-23T07:51:42;19.85;;;3.22;;
16770;SDS011;8503;52.472;13.344;2022-07-23T07:53:05;12.40;;;3.90;;
16770;SDS011;8503;52.472;13.344;2022-07-23T07:54:30;7.90;;;3.47;;
16770;SDS011;8503;52.472;13.344;2022-07-23T07:55:53;6.97;;;2.70;;
16770;SDS011;8503;52.472;13.344;2022-07-23T07:57:18;6.72;;;3.40;;
16770;SDS011;8503;52.472;13.344;2022-07-23T07:58:41;8.20;;;2.97;;
16770;SDS011;8503;52.472;13.344;2022-07-23T08:00:05;7.28;;;3.10;;
16770;SDS011;8503;52.472;13.344;2022-07-23T08:01:29;5.30;;;3.00;;
16770;SDS011;8503;52.472;13.344;2022-07-23T08:02:54;9.07;;;3.35;;
16770;SDS011;8503;52.472;13.344;2022-07-23T08:04:20;9.40;;;3.28;;
16770;SDS011;8503;52.472;13.344;2022-07-23T08:05:44;4.25;;;2.80;;
16770;SDS011;8503;52.472;13.344;2022-07-23T08:07:08;9.57;;;3.15;;
16770;SDS011;8503;52.472;13.344;2022-07-23T08:08:31;10.00;;;3.08;;
16770;SDS011;8503;52.472;13.344;2022-07-23T08:09:55;8.00;;;2.63;;
16770;SDS011;8503;52.472;13.344;2022-07-23T08:11:19;7.00;;;2.92;;
16770;SDS011;8503;52.472;13.344;2022-07-23T08:12:43;6.70;;;3.08;;
16770;SDS011;8503;52.472;13.344;2022-07-23T08:14:07;5.30;;;2.55;;
16770;SDS011;8503;52.472;13.344;2022-07-23T08:15:32;5.47;;;2.50;;
16770;SDS011;8503;52.472;13.344;2022-07-23T08:16:55;3.25;;;2.50;;
16770;SDS011;8503;52.472;13.344;2022-07-23T08:18:36;6.03;;;2.50;;
16770;SDS011;8503;52.472;13.344;2022-07-23T08:19:59;6.15;;;3.17;;
16770;SDS011;8503;52.472;13.344;2022-07-23T08:21:24;14.45;;;2.65;;
16770;SDS011;8503;52.472;13.344;2022-07-23T08:22:49;8.02;;;3.25;;
16770;SDS011;8503;52.472;13.344;2022-07-23T08:24:13;3.38;;;2.22;;
16770;SDS011;8503;52.472;13.344;2022-07-23T08:25:37;6.45;;;2.30;;